Time;durP1;ratioP1;P1;durP2;ratioP2;P2;SDS_P1;SDS_P2;PMS_P1;PMS_P2;Temp;Humidity;BMP_temperature;BMP_pressure;BME280_temperature;BME280_humidity;BME280_pressure;Samples;Min_cycle;Max_cycle;Signal;HPM_P1;HPM_P2
2022/10/31 00:01:40;;;;;;;14.17;6.77;;;9.00;99.90;;;;;;5068017;28;20175;-56
2022/10/31 00:04:06;;;;;;;17.77;7.40;;;9.00;99.90;;;;;;5063203;28;20253;-58
2022/10/31 00:06:32;;;;;;;14.60;6.83;;;8.90;99.90;;;;;;5067088;28;20556;-57
2022/10/31 00:09:03;;;;;;;13.73;6.93;;;8.90;99.90;;;;;;5067522;28;20851;-57
2022/10/31 00:11:29;;;;;;;25.17;7.97;;;8.90;99.90;;;;;;5060329;28;20166;-56
2022/10/31 00:13:56;;;;;;;13.60;6.63;;;8.80;99.90;;;;;;5068651;28;20420;-57
2022/10/31 00:16:23;;;;;;;12.77;6.03;;;8.80;99.90;;;;;;5071376;28;20477;-57
2022/10/31 00:18:53;;;;;;;15.43;6.33;;;8.80;99.90;;;;;;5067189;28;20451;-56
2022/10/31 00:21:19;;;;;;;19.23;8.60;;;8.80;99.90;;;;;;5064261;28;20814;-56
2022/10/31 00:23:45;;;;;;;11.67;6.20;;;8.70;99.90;;;;;;5064649;28;20493;-57
2022/10/31 00:26:11;;;;;;;12.23;6.90;;;8.70;99.90;;;;;;5067334;28;20464;-56
2022/10/31 00:28:36;;;;;;;10.17;6.17;;;8.70;99.90;;;;;;5068846;28;20177;-56
2022/10/31 00:31:05;;;;;;;14.33;6.53;;;8.70;99.90;;;;;;5054499;28;20215;-56
2022/10/31 00:33:33;;;;;;;7.37;5.13;;;8.70;99.90;;;;;;5065023;28;20183;-57
2022/10/31 00:35:59;;;;;;;14.20;6.33;;;8.60;99.90;;;;;;5060443;28;20514;-55
2022/10/31 00:38:25;;;;;;;15.97;7.50;;;8.60;99.90;;;;;;5069824;28;20475;-57
2022/10/31 00:40:51;;;;;;;13.63;6.20;;;8.60;99.90;;;;;;5068837;28;20192;-56
2022/10/31 00:43:16;;;;;;;18.47;6.27;;;8.60;99.90;;;;;;5066496;28;20253;-56
2022/10/31 00:45:42;;;;;;;12.13;6.30;;;8.60;99.90;;;;;;5071137;28;20515;-57
2022/10/31 00:48:09;;;;;;;13.27;6.00;;;8.60;99.90;;;;;;5062323;28;20191;-56
2022/10/31 00:50:35;;;;;;;9.77;6.40;;;8.60;99.90;;;;;;5070200;28;20865;-55
2022/10/31 00:53:00;;;;;;;14.40;6.20;;;8.60;99.90;;;;;;5067695;28;20534;-56
2022/10/31 00:55:26;;;;;;;12.27;5.90;;;8.50;99.90;;;;;;5070595;28;20992;-58
2022/10/31 00:57:52;;;;;;;12.23;5.70;;;8.50;99.90;;;;;;5069435;28;20191;-56
2022/10/31 01:00:17;;;;;;;20.27;5.50;;;8.50;99.90;;;;;;5064794;28;20241;-58
2022/10/31 01:02:43;;;;;;;10.57;6.13;;;8.50;99.90;;;;;;5069399;28;20623;-56
2022/10/31 01:05:09;;;;;;;19.67;7.10;;;8.50;99.90;;;;;;5072997;28;20607;-58
2022/10/31 01:07:39;;;;;;;23.27;6.90;;;8.50;99.90;;;;;;5074036;28;20183;-56
2022/10/31 01:10:06;;;;;;;9.00;6.07;;;8.50;99.90;;;;;;5069006;28;20637;-57
2022/10/31 01:12:39;;;;;;;16.03;7.13;;;8.50;99.90;;;;;;5070587;28;20428;-55
2022/10/31 01:15:06;;;;;;;8.23;5.87;;;8.50;99.90;;;;;;5068093;28;20444;-55
2022/10/31 01:17:32;;;;;;;9.33;5.47;;;8.40;99.90;;;;;;5066987;28;20524;-54
2022/10/31 01:19:57;;;;;;;13.97;6.10;;;8.40;99.90;;;;;;5070062;28;20429;-56
2022/10/31 01:22:23;;;;;;;19.30;5.97;;;8.40;99.90;;;;;;5070668;28;20232;-58
2022/10/31 01:24:49;;;;;;;13.10;6.13;;;8.30;99.90;;;;;;5071797;28;20888;-57
2022/10/31 01:27:14;;;;;;;11.20;6.40;;;8.30;99.90;;;;;;5069569;28;20256;-56
2022/10/31 01:29:40;;;;;;;16.30;5.33;;;8.30;99.90;;;;;;5072764;28;20605;-57
2022/10/31 01:32:05;;;;;;;11.70;5.63;;;8.30;99.90;;;;;;5071087;28;20206;-55
2022/10/31 01:34:31;;;;;;;12.90;5.43;;;8.30;99.90;;;;;;5062664;28;20965;-57
2022/10/31 01:36:56;;;;;;;10.60;5.60;;;8.30;99.90;;;;;;5073979;28;20194;-57
2022/10/31 01:39:22;;;;;;;14.03;5.97;;;8.20;99.90;;;;;;5065043;28;20171;-58
2022/10/31 01:41:50;;;;;;;12.10;5.83;;;8.20;99.90;;;;;;5071579;28;20645;-57
2022/10/31 01:44:16;;;;;;;10.60;5.00;;;8.20;99.90;;;;;;5061485;28;20186;-57
2022/10/31 01:46:59;;;;;;;8.03;5.53;;;8.10;99.90;;;;;;5070900;28;20471;-56
2022/10/31 01:49:39;;;;;;;20.33;5.67;;;8.10;99.90;;;;;;5066258;28;20223;-57
2022/10/31 01:52:16;;;;;;;10.67;5.90;;;8.10;99.90;;;;;;5064451;28;20463;-57
2022/10/31 01:54:50;;;;;;;9.80;5.00;;;8.00;99.90;;;;;;5061140;28;20488;-56
2022/10/31 01:57:18;;;;;;;9.23;4.53;;;8.00;99.90;;;;;;5069646;28;20484;-57
2022/10/31 01:59:48;;;;;;;11.77;4.90;;;8.00;99.90;;;;;;5065431;28;20434;-57
2022/10/31 02:02:16;;;;;;;11.63;4.83;;;8.00;99.90;;;;;;5066353;28;20472;-58
2022/10/31 02:04:43;;;;;;;14.77;5.27;;;8.00;99.90;;;;;;5067658;28;20456;-57
2022/10/31 02:07:16;;;;;;;11.20;5.63;;;8.00;99.90;;;;;;5065808;28;20457;-55
2022/10/31 02:09:44;;;;;;;13.67;5.20;;;8.00;99.90;;;;;;5062379;28;20409;-57
2022/10/31 02:12:10;;;;;;;10.83;5.43;;;7.90;99.90;;;;;;5065175;28;20428;-57
2022/10/31 02:14:37;;;;;;;10.23;5.30;;;7.90;99.90;;;;;;5068036;28;20930;-58
2022/10/31 02:17:03;;;;;;;8.83;5.40;;;7.90;99.90;;;;;;5070871;28;20514;-58
2022/10/31 02:20:09;;;;;;;9.80;4.80;;;7.90;99.90;;;;;;5065615;28;20441;-56
2022/10/31 02:22:49;;;;;;;9.23;5.17;;;7.90;99.90;;;;;;5066689;28;20195;-56
2022/10/31 02:25:36;;;;;;;10.43;5.07;;;7.90;99.90;;;;;;5066163;28;20452;-57
2022/10/31 02:28:26;;;;;;;13.83;5.50;;;7.80;99.90;;;;;;5066149;28;20453;-57
2022/10/31 02:30:55;;;;;;;11.90;5.00;;;7.80;99.90;;;;;;5064481;28;20421;-58
2022/10/31 02:33:32;;;;;;;7.27;4.10;;;7.80;99.90;;;;;;5066054;28;20433;-57
2022/10/31 02:36:09;;;;;;;9.23;4.80;;;7.80;99.90;;;;;;5062267;28;20433;-56
2022/10/31 02:38:52;;;;;;;10.17;4.60;;;7.80;99.90;;;;;;5066593;28;20447;-56
2022/10/31 02:41:24;;;;;;;8.87;4.70;;;7.70;99.90;;;;;;5067965;28;20497;-57
2022/10/31 02:44:04;;;;;;;8.30;4.50;;;7.70;99.90;;;;;;5067210;28;20519;-55
2022/10/31 02:46:45;;;;;;;13.57;5.87;;;7.70;99.90;;;;;;5066570;28;20460;-57
2022/10/31 02:49:42;;;;;;;11.63;5.37;;;7.70;99.90;;;;;;5064306;28;20421;-57
2022/10/31 02:52:17;;;;;;;14.80;4.50;;;7.70;99.90;;;;;;5035284;28;20479;-56
2022/10/31 02:54:47;;;;;;;14.20;4.80;;;7.60;99.90;;;;;;5067007;28;20428;-58
2022/10/31 02:57:15;;;;;;;20.03;8.37;;;7.60;99.90;;;;;;5066944;28;21118;-57
2022/10/31 02:59:47;;;;;;;12.57;8.03;;;7.60;99.90;;;;;;5064204;28;20519;-59
2022/10/31 03:02:48;;;;;;;8.63;6.03;;;7.60;99.90;;;;;;5063164;28;20527;-56
2022/10/31 03:05:16;;;;;;;7.17;4.30;;;7.60;99.90;;;;;;5063026;28;20468;-57
2022/10/31 03:08:01;;;;;;;9.87;5.13;;;7.50;99.90;;;;;;5076236;28;20460;-57
2022/10/31 03:10:59;;;;;;;12.60;4.80;;;7.50;99.90;;;;;;5065923;28;21074;-56
2022/10/31 03:13:39;;;;;;;14.63;5.60;;;7.50;99.90;;;;;;5061303;28;20428;-58
2022/10/31 03:16:29;;;;;;;18.83;5.80;;;7.50;99.90;;;;;;5064706;28;20450;-55
2022/10/31 03:19:15;;;;;;;9.03;4.50;;;7.50;99.90;;;;;;5060966;28;20440;-58
2022/10/31 03:21:53;;;;;;;8.80;4.50;;;7.50;99.90;;;;;;5064653;28;20428;-56
2022/10/31 03:24:21;;;;;;;10.97;4.60;;;7.50;99.90;;;;;;5066897;28;20524;-56
2022/10/31 03:26:53;;;;;;;16.23;5.40;;;7.40;99.90;;;;;;5067334;28;20562;-55
2022/10/31 03:29:22;;;;;;;8.73;4.40;;;7.40;99.90;;;;;;5067239;28;20441;-54
2022/10/31 03:31:57;;;;;;;11.23;5.20;;;7.40;99.90;;;;;;5065422;28;20429;-56
2022/10/31 03:34:23;;;;;;;7.90;4.67;;;7.40;99.90;;;;;;5082819;28;21142;-55
2022/10/31 03:36:55;;;;;;;10.17;4.93;;;7.40;99.90;;;;;;5065627;28;20441;-56
2022/10/31 03:39:22;;;;;;;12.30;5.00;;;7.40;99.90;;;;;;5062091;28;20424;-58
2022/10/31 03:41:57;;;;;;;6.00;4.13;;;7.40;99.90;;;;;;5065368;28;20424;-55
2022/10/31 03:44:24;;;;;;;13.07;4.50;;;7.40;99.90;;;;;;5065053;28;20428;-56
2022/10/31 03:46:50;;;;;;;13.70;5.10;;;7.40;99.90;;;;;;5064805;28;20505;-59
2022/10/31 03:49:16;;;;;;;11.13;4.53;;;7.30;99.90;;;;;;5068295;28;20482;-58
2022/10/31 03:52:00;;;;;;;6.80;3.73;;;7.30;99.90;;;;;;5063977;28;20449;-56
2022/10/31 03:54:35;;;;;;;8.60;3.80;;;7.30;99.90;;;;;;5068205;28;20421;-57
2022/10/31 03:57:26;;;;;;;9.40;5.00;;;7.30;99.90;;;;;;5065838;28;20448;-56
2022/10/31 03:59:58;;;;;;;7.10;4.20;;;7.20;99.90;;;;;;5048292;28;20537;-56
2022/10/31 04:02:29;;;;;;;6.03;4.03;;;7.20;99.90;;;;;;5061500;28;20459;-58
2022/10/31 04:04:57;;;;;;;6.70;3.83;;;7.20;99.90;;;;;;5068385;28;20456;-56
2022/10/31 04:07:26;;;;;;;9.33;4.33;;;7.10;99.90;;;;;;5068446;28;20527;-57
2022/10/31 04:09:53;;;;;;;5.53;4.53;;;7.10;99.90;;;;;;5073786;28;20412;-56
2022/10/31 04:12:21;;;;;;;6.13;4.50;;;7.10;99.90;;;;;;5069203;28;20416;-57
2022/10/31 04:14:48;;;;;;;9.10;4.67;;;7.10;99.90;;;;;;5070643;28;20428;-57
2022/10/31 04:17:17;;;;;;;12.23;4.23;;;7.10;99.90;;;;;;5069985;28;20464;-57
2022/10/31 04:19:43;;;;;;;9.17;4.10;;;7.00;99.90;;;;;;5067881;28;20428;-56
2022/10/31 04:22:08;;;;;;;15.20;4.83;;;7.00;99.90;;;;;;5067726;28;20568;-62
2022/10/31 04:24:34;;;;;;;11.60;5.00;;;7.00;99.90;;;;;;5072221;28;20178;-56
2022/10/31 04:27:00;;;;;;;6.23;4.53;;;7.00;99.90;;;;;;5073440;28;20190;-57
2022/10/31 04:29:25;;;;;;;8.50;5.30;;;7.00;99.90;;;;;;5072540;28;21672;-57
2022/10/31 04:31:51;;;;;;;16.47;4.83;;;7.00;99.90;;;;;;5070385;28;20236;-60
2022/10/31 04:34:17;;;;;;;9.63;4.47;;;7.00;99.90;;;;;;5073081;28;20656;-56
2022/10/31 04:36:42;;;;;;;9.80;4.50;;;7.00;99.90;;;;;;5071878;28;20332;-56
2022/10/31 04:39:08;;;;;;;5.93;4.33;;;7.00;99.90;;;;;;5073035;28;20213;-57
2022/10/31 04:41:33;;;;;;;10.00;4.60;;;7.00;99.90;;;;;;5068179;28;20189;-57
2022/10/31 04:43:59;;;;;;;6.20;4.13;;;7.00;99.90;;;;;;5073135;28;20185;-55
2022/10/31 04:46:24;;;;;;;13.83;5.33;;;6.90;99.90;;;;;;5068288;28;20294;-58
2022/10/31 04:48:50;;;;;;;7.27;4.93;;;6.90;99.90;;;;;;5071234;28;20677;-56
2022/10/31 04:51:16;;;;;;;10.00;5.00;;;6.90;99.90;;;;;;5069715;28;20182;-58
2022/10/31 04:53:41;;;;;;;5.40;3.90;;;6.90;99.90;;;;;;5063458;28;20174;-55
2022/10/31 04:56:07;;;;;;;6.87;4.40;;;6.80;99.90;;;;;;5072048;28;20187;-56
2022/10/31 04:58:32;;;;;;;6.80;4.10;;;6.80;99.90;;;;;;5072111;28;20182;-56
2022/10/31 05:00:58;;;;;;;6.43;4.30;;;6.80;99.90;;;;;;5071297;28;20174;-55
2022/10/31 05:03:24;;;;;;;9.23;4.23;;;6.80;99.90;;;;;;5065812;28;20453;-57
2022/10/31 05:05:49;;;;;;;4.90;3.63;;;6.70;99.90;;;;;;5069036;28;20765;-56
2022/10/31 05:08:15;;;;;;;15.60;4.00;;;6.70;99.90;;;;;;5065518;28;20195;-56
2022/10/31 05:10:41;;;;;;;4.37;3.60;;;6.70;99.90;;;;;;5070566;28;20653;-57
2022/10/31 05:13:06;;;;;;;8.53;3.87;;;6.70;99.90;;;;;;5068167;28;20540;-56
2022/10/31 05:15:32;;;;;;;6.83;4.10;;;6.60;99.90;;;;;;5066348;28;20319;-56
2022/10/31 05:17:58;;;;;;;8.97;4.37;;;6.60;99.90;;;;;;5085091;22;20217;-59
2022/10/31 05:20:27;;;;;;;6.77;4.60;;;6.60;99.90;;;;;;5060128;28;20426;-60
2022/10/31 05:22:55;;;;;;;6.83;4.27;;;6.60;99.90;;;;;;5083569;28;20425;-59
2022/10/31 05:25:22;;;;;;;6.60;4.80;;;6.60;99.90;;;;;;5072898;28;20504;-60
2022/10/31 05:27:50;;;;;;;4.87;4.07;;;6.60;99.90;;;;;;5088202;28;20470;-60
2022/10/31 05:30:19;;;;;;;6.97;4.60;;;6.60;99.90;;;;;;5084878;28;20818;-60
2022/10/31 05:32:47;;;;;;;9.30;4.60;;;6.60;99.90;;;;;;5083649;28;20431;-61
2022/10/31 05:35:19;;;;;;;7.77;4.70;;;6.60;99.90;;;;;;5080482;28;20423;-61
2022/10/31 05:37:44;;;;;;;9.63;4.50;;;6.50;99.90;;;;;;5079461;28;20455;-61
2022/10/31 05:40:12;;;;;;;6.07;4.37;;;6.50;99.90;;;;;;5065030;28;20429;-61
2022/10/31 05:42:39;;;;;;;16.47;5.43;;;6.50;99.90;;;;;;5081362;28;20667;-60
2022/10/31 05:45:07;;;;;;;7.13;4.80;;;6.50;99.90;;;;;;5085099;28;20455;-61
2022/10/31 05:47:32;;;;;;;7.43;4.20;;;6.50;99.90;;;;;;5078443;28;20947;-61
2022/10/31 05:49:58;;;;;;;7.27;5.00;;;6.50;99.90;;;;;;5080655;28;20419;-61
2022/10/31 05:52:24;;;;;;;6.30;4.33;;;6.50;99.90;;;;;;5080087;28;20231;-61
2022/10/31 05:54:50;;;;;;;6.23;4.43;;;6.40;99.90;;;;;;5070954;28;20692;-61
2022/10/31 05:57:16;;;;;;;17.20;5.07;;;6.50;99.90;;;;;;5075699;28;20514;-59
2022/10/31 05:59:41;;;;;;;11.80;5.70;;;6.40;99.90;;;;;;5088393;28;20185;-61
2022/10/31 06:02:07;;;;;;;12.63;4.87;;;6.40;99.90;;;;;;5085664;28;20257;-60
2022/10/31 06:04:32;;;;;;;8.43;4.53;;;6.40;99.90;;;;;;5081934;28;20182;-61
2022/10/31 06:06:58;;;;;;;8.43;4.97;;;6.40;99.90;;;;;;5079979;28;20269;-61
2022/10/31 06:09:23;;;;;;;19.33;5.30;;;6.40;99.90;;;;;;5081540;28;20198;-61
2022/10/31 06:11:49;;;;;;;6.53;4.47;;;6.40;99.90;;;;;;5083070;28;20184;-59
2022/10/31 06:14:15;;;;;;;15.20;6.13;;;6.40;99.90;;;;;;5079520;28;20192;-60
2022/10/31 06:16:40;;;;;;;11.50;4.90;;;6.40;99.90;;;;;;5082450;28;20180;-60
2022/10/31 06:19:06;;;;;;;21.03;5.83;;;6.40;99.90;;;;;;5084691;28;20248;-59
2022/10/31 06:21:31;;;;;;;14.37;5.13;;;6.50;99.90;;;;;;5081279;28;20193;-62
2022/10/31 06:23:57;;;;;;;10.80;4.10;;;6.50;99.90;;;;;;5084531;28;20213;-61
2022/10/31 06:26:23;;;;;;;9.70;4.73;;;6.50;99.90;;;;;;5081505;28;20707;-60
2022/10/31 06:28:48;;;;;;;8.70;3.90;;;6.50;99.90;;;;;;5066725;28;20594;-59
2022/10/31 06:31:14;;;;;;;9.07;4.23;;;6.50;99.90;;;;;;5083606;28;20490;-59
2022/10/31 06:33:42;;;;;;;9.77;4.67;;;6.50;99.90;;;;;;5073900;28;20634;-59
2022/10/31 06:36:08;;;;;;;9.83;4.60;;;6.50;99.90;;;;;;5085529;28;20817;-59
2022/10/31 06:38:34;;;;;;;8.93;4.67;;;6.60;99.90;;;;;;5077420;28;20505;-58
2022/10/31 06:41:04;;;;;;;10.00;5.23;;;6.60;99.90;;;;;;5082962;28;20459;-59
2022/10/31 06:43:29;;;;;;;5.90;4.53;;;6.60;99.90;;;;;;5085285;28;20196;-59
2022/10/31 06:45:55;;;;;;;8.13;4.53;;;6.60;99.90;;;;;;5080178;28;20468;-59
2022/10/31 06:48:21;;;;;;;7.07;5.17;;;6.60;99.90;;;;;;5082438;28;20198;-59
2022/10/31 06:50:46;;;;;;;8.70;4.90;;;6.70;99.90;;;;;;5080854;28;20770;-59
2022/10/31 06:53:13;;;;;;;5.93;4.50;;;6.70;99.90;;;;;;5076668;28;20179;-60
2022/10/31 06:55:40;;;;;;;6.27;4.40;;;6.70;99.90;;;;;;5081207;28;20273;-59
2022/10/31 06:58:05;;;;;;;7.63;5.43;;;6.70;99.90;;;;;;5083436;28;20491;-58
2022/10/31 07:00:31;;;;;;;6.87;5.30;;;6.70;99.90;;;;;;5078620;28;20472;-59
2022/10/31 07:02:59;;;;;;;11.03;6.63;;;6.80;99.90;;;;;;5075156;28;20248;-59
2022/10/31 07:05:26;;;;;;;8.40;5.20;;;6.80;99.90;;;;;;5079815;28;20459;-59
2022/10/31 07:08:00;;;;;;;12.23;5.70;;;6.90;99.90;;;;;;5080880;28;20452;-59
2022/10/31 07:10:27;;;;;;;10.03;5.00;;;7.00;99.90;;;;;;5079554;28;20514;-59
2022/10/31 07:12:58;;;;;;;7.67;5.30;;;7.00;99.90;;;;;;5078963;28;20467;-58
2022/10/31 07:15:24;;;;;;;10.50;5.23;;;7.10;99.90;;;;;;5066768;28;20497;-59
2022/10/31 07:17:50;;;;;;;11.13;6.17;;;7.10;99.90;;;;;;5085454;28;20520;-59
2022/10/31 07:20:16;;;;;;;8.00;5.40;;;7.20;99.90;;;;;;5089942;28;20766;-59
2022/10/31 07:22:42;;;;;;;7.47;5.30;;;7.20;99.90;;;;;;5085658;28;20180;-59
2022/10/31 07:25:08;;;;;;;8.97;6.27;;;7.30;99.90;;;;;;5074946;28;20487;-59
2022/10/31 07:27:41;;;;;;;13.97;6.80;;;7.40;99.90;;;;;;5083258;28;20221;-59
2022/10/31 07:30:09;;;;;;;13.23;7.03;;;7.50;99.90;;;;;;5084421;28;20427;-59
2022/10/31 07:32:46;;;;;;;11.10;7.17;;;7.50;99.90;;;;;;5073295;28;20464;-60
2022/10/31 07:35:15;;;;;;;12.90;6.60;;;7.60;99.90;;;;;;5080137;28;20536;-59
2022/10/31 07:37:41;;;;;;;11.60;7.10;;;7.70;99.90;;;;;;5064492;28;20447;-59
2022/10/31 07:40:08;;;;;;;16.37;6.87;;;7.70;99.90;;;;;;5078899;28;20439;-59
2022/10/31 07:42:48;;;;;;;12.53;6.07;;;7.80;99.90;;;;;;5077929;28;20462;-59
2022/10/31 07:45:19;;;;;;;10.30;6.67;;;7.90;99.90;;;;;;5083940;28;20463;-59
2022/10/31 07:47:50;;;;;;;9.93;5.50;;;8.00;99.90;;;;;;5082675;28;20450;-59
2022/10/31 07:50:19;;;;;;;15.17;5.67;;;8.00;99.90;;;;;;5083607;28;20416;-59
2022/10/31 07:52:45;;;;;;;10.03;5.53;;;8.10;99.90;;;;;;5072949;28;20420;-60
2022/10/31 07:55:11;;;;;;;26.27;7.33;;;8.20;99.90;;;;;;5085782;28;20497;-59
2022/10/31 07:57:37;;;;;;;8.60;5.90;;;8.30;99.90;;;;;;5062471;28;20241;-58
2022/10/31 08:00:07;;;;;;;13.33;6.30;;;8.30;99.90;;;;;;5071858;28;21018;-58
2022/10/31 08:02:33;;;;;;;10.73;6.23;;;8.30;99.90;;;;;;5062210;28;20231;-59
2022/10/31 08:04:59;;;;;;;11.20;4.83;;;8.40;99.90;;;;;;5077873;28;20464;-59
2022/10/31 08:07:25;;;;;;;8.53;5.30;;;8.50;99.90;;;;;;5077493;28;20174;-60
2022/10/31 08:09:51;;;;;;;9.30;5.20;;;8.50;99.90;;;;;;5080959;28;20515;-58
2022/10/31 08:12:16;;;;;;;9.97;5.67;;;8.50;99.90;;;;;;5078207;28;20538;-59
2022/10/31 08:14:42;;;;;;;11.07;6.10;;;8.60;99.90;;;;;;5066714;28;20739;-59
2022/10/31 08:17:08;;;;;;;7.80;5.50;;;8.70;99.90;;;;;;5079295;28;20177;-62
2022/10/31 08:19:33;;;;;;;8.83;6.03;;;8.80;99.90;;;;;;5059891;28;20280;-63
2022/10/31 08:22:00;;;;;;;8.87;5.30;;;8.80;99.90;;;;;;5079720;28;20208;-60
2022/10/31 08:24:25;;;;;;;16.43;7.07;;;8.90;99.90;;;;;;5077925;28;20240;-60
2022/10/31 08:26:52;;;;;;;9.03;5.40;;;9.00;99.90;;;;;;5078815;28;21000;-60
2022/10/31 08:29:17;;;;;;;6.60;4.63;;;9.10;99.90;;;;;;5075576;28;20198;-58
2022/10/31 08:31:43;;;;;;;10.53;5.30;;;9.20;99.90;;;;;;5078369;28;20477;-61
2022/10/31 08:34:09;;;;;;;13.20;5.57;;;9.30;99.90;;;;;;5080638;28;20210;-60
2022/10/31 08:36:34;;;;;;;14.97;5.07;;;9.40;99.90;;;;;;5077296;28;20189;-60
2022/10/31 08:39:00;;;;;;;10.33;5.40;;;9.50;99.90;;;;;;5077543;28;20633;-60
2022/10/31 08:41:26;;;;;;;10.83;6.10;;;9.60;99.90;;;;;;5079901;28;20182;-60
2022/10/31 08:43:52;;;;;;;14.37;7.17;;;9.70;99.90;;;;;;5075829;28;20438;-61
2022/10/31 08:46:17;;;;;;;27.43;7.17;;;9.80;99.90;;;;;;5061100;28;20202;-58
2022/10/31 08:48:43;;;;;;;12.97;6.43;;;9.90;99.90;;;;;;5079125;28;20711;-59
2022/10/31 08:51:10;;;;;;;12.10;6.40;;;10.10;99.90;;;;;;5079275;28;20174;-63
2022/10/31 08:53:36;;;;;;;13.40;6.50;;;10.20;99.90;;;;;;5060366;28;20185;-61
2022/10/31 08:56:01;;;;;;;16.63;5.90;;;10.30;99.90;;;;;;5077974;28;20428;-61
2022/10/31 08:58:27;;;;;;;13.33;6.20;;;10.40;99.90;;;;;;5081003;28;20481;-59
2022/10/31 09:00:54;;;;;;;15.87;6.40;;;10.60;99.90;;;;;;5079685;28;20178;-59
2022/10/31 09:03:30;;;;;;;17.53;6.40;;;10.70;99.90;;;;;;5075619;28;20202;-60
2022/10/31 09:05:59;;;;;;;18.07;6.30;;;10.90;99.90;;;;;;5073458;28;20465;-61
2022/10/31 09:08:25;;;;;;;14.33;6.40;;;11.00;99.90;;;;;;5080814;28;20514;-59
2022/10/31 09:10:51;;;;;;;17.03;6.93;;;11.10;99.90;;;;;;5084407;28;20415;-59
2022/10/31 09:13:19;;;;;;;15.70;7.90;;;11.20;99.90;;;;;;5078452;28;20455;-62
2022/10/31 09:15:47;;;;;;;10.20;5.87;;;11.40;99.90;;;;;;5080178;28;20436;-59
2022/10/31 09:18:14;;;;;;;21.30;6.23;;;11.50;99.90;;;;;;5061460;28;20489;-60
2022/10/31 09:20:42;;;;;;;20.90;7.40;;;11.70;99.90;;;;;;5079198;28;20429;-60
2022/10/31 09:23:16;;;;;;;16.23;6.97;;;11.90;99.90;;;;;;5077491;28;20463;-60
2022/10/31 09:25:42;;;;;;;13.13;6.10;;;12.00;99.90;;;;;;5078986;28;20451;-57
2022/10/31 09:28:11;;;;;;;14.53;5.90;;;12.20;99.90;;;;;;5081751;28;20454;-59
2022/10/31 09:30:36;;;;;;;14.90;6.60;;;12.30;99.90;;;;;;5079099;28;20182;-60
2022/10/31 09:33:12;;;;;;;12.63;6.33;;;12.50;99.90;;;;;;5081351;28;20432;-59
2022/10/31 09:35:39;;;;;;;15.83;6.07;;;12.60;99.90;;;;;;5079536;28;20194;-59
2022/10/31 09:38:08;;;;;;;21.50;6.73;;;12.70;99.90;;;;;;5081265;28;20454;-62
2022/10/31 09:40:47;;;;;;;17.13;6.50;;;12.80;99.90;;;;;;5079624;28;20510;-59
2022/10/31 09:43:24;;;;;;;10.53;6.23;;;12.90;99.90;;;;;;5077740;28;21133;-60
2022/10/31 09:46:17;;;;;;;22.30;6.17;;;13.10;99.90;;;;;;5080342;28;20451;-59
2022/10/31 09:48:51;;;;;;;15.27;5.83;;;13.30;99.90;;;;;;5065768;28;20463;-61
2022/10/31 09:51:34;;;;;;;7.60;5.03;;;13.50;99.90;;;;;;5078589;28;21025;-60
2022/10/31 09:54:04;;;;;;;21.47;6.17;;;13.70;99.90;;;;;;5057683;28;20533;-57
2022/10/31 09:56:31;;;;;;;13.57;6.47;;;13.90;99.90;;;;;;5078904;28;20432;-57
2022/10/31 09:59:00;;;;;;;13.60;5.87;;;14.00;99.90;;;;;;5076057;28;20451;-56
2022/10/31 10:01:49;;;;;;;12.33;5.30;;;14.10;99.90;;;;;;5075688;28;20435;-60
2022/10/31 10:04:56;;;;;;;10.57;5.70;;;14.20;99.90;;;;;;5081284;28;20444;-62
2022/10/31 10:07:44;;;;;;;18.37;5.67;;;14.20;99.90;;;;;;5080915;28;20535;-60
2022/10/31 10:10:23;;;;;;;9.30;5.53;;;14.40;99.90;;;;;;5080584;28;20460;-60
2022/10/31 10:13:19;;;;;;;13.63;5.27;;;14.60;99.90;;;;;;5077508;28;20503;-61
2022/10/31 10:16:19;;;;;;;13.73;5.47;;;14.80;99.90;;;;;;5056930;28;20432;-62
2022/10/31 10:18:54;;;;;;;16.53;4.80;;;15.00;99.90;;;;;;5062324;28;20474;-61
2022/10/31 10:21:22;;;;;;;19.03;5.90;;;15.30;99.90;;;;;;5079360;28;20439;-60
2022/10/31 10:24:13;;;;;;;18.37;4.87;;;15.40;97.20;;;;;;5079065;28;20423;-60
2022/10/31 10:26:46;;;;;;;18.03;5.20;;;15.60;97.80;;;;;;5081853;28;20622;-60
2022/10/31 10:29:46;;;;;;;8.70;4.73;;;15.70;97.70;;;;;;5082301;28;20451;-61
2022/10/31 10:32:22;;;;;;;19.63;4.90;;;15.80;97.50;;;;;;5080755;28;20458;-60
2022/10/31 10:34:53;;;;;;;8.50;4.63;;;16.00;95.40;;;;;;5081825;28;20859;-60
2022/10/31 10:37:33;;;;;;;13.70;4.77;;;16.00;94.00;;;;;;5079538;28;20434;-60
2022/10/31 10:40:16;;;;;;;8.50;4.27;;;16.10;94.90;;;;;;5077167;28;20463;-60
2022/10/31 10:48:30;;;;;;;18.93;4.60;;;16.40;95.10;;;;;;5079259;28;20458;-59
2022/10/31 10:50:55;;;;;;;11.43;4.13;;;16.50;94.00;;;;;;5079597;28;20454;-60
2022/10/31 10:54:02;;;;;;;9.50;5.27;;;16.50;93.90;;;;;;5078583;28;20428;-60
2022/10/31 10:56:43;;;;;;;19.20;5.00;;;16.50;93.70;;;;;;5079218;28;20185;-60
2022/10/31 10:59:13;;;;;;;12.77;5.13;;;16.60;92.30;;;;;;5079794;28;20447;-61
2022/10/31 11:01:41;;;;;;;18.60;5.67;;;16.70;92.50;;;;;;5080711;28;20438;-60
2022/10/31 11:04:30;;;;;;;8.73;4.80;;;16.80;91.20;;;;;;5078069;28;20436;-60
2022/10/31 11:06:57;;;;;;;10.40;4.40;;;17.00;90.30;;;;;;5078084;28;20486;-60
2022/10/31 11:09:23;;;;;;;20.53;6.27;;;17.10;88.10;;;;;;5078735;28;20459;-61
2022/10/31 11:11:49;;;;;;;16.67;5.00;;;17.10;86.70;;;;;;5080154;28;20412;-59
2022/10/31 11:14:16;;;;;;;13.03;4.23;;;17.10;87.60;;;;;;5079858;28;20705;-60
2022/10/31 11:16:47;;;;;;;13.33;4.43;;;17.10;91.00;;;;;;5079645;28;20828;-61
2022/10/31 11:19:21;;;;;;;16.20;4.33;;;17.10;90.70;;;;;;5080573;28;20600;-61
2022/10/31 11:21:47;;;;;;;16.43;4.67;;;17.00;91.40;;;;;;5079537;28;20546;-60
2022/10/31 11:24:20;;;;;;;11.80;4.83;;;16.90;93.60;;;;;;5078733;28;20435;-60
2022/10/31 11:26:48;;;;;;;15.33;4.30;;;16.90;95.30;;;;;;5077693;28;20455;-60
2022/10/31 11:29:17;;;;;;;19.20;4.83;;;16.80;96.00;;;;;;5081201;28;20439;-60
2022/10/31 11:31:45;;;;;;;22.13;5.33;;;16.70;97.90;;;;;;5082293;28;20479;-60
2022/10/31 11:34:20;;;;;;;9.80;4.70;;;16.60;97.00;;;;;;5076958;28;20957;-66
2022/10/31 11:36:46;;;;;;;17.63;5.20;;;16.60;94.60;;;;;;5076620;28;20439;-61
2022/10/31 11:39:22;;;;;;;10.00;4.80;;;16.50;92.80;;;;;;5079550;28;20530;-61
2022/10/31 11:41:50;;;;;;;14.33;4.97;;;16.50;94.60;;;;;;5078601;28;20178;-61
2022/10/31 11:44:20;;;;;;;8.27;4.40;;;16.50;97.10;;;;;;5073068;28;20551;-61
2022/10/31 11:46:57;;;;;;;17.30;4.60;;;16.40;98.60;;;;;;5080687;28;20459;-60
2022/10/31 11:49:43;;;;;;;13.50;4.60;;;16.50;99.90;;;;;;5079437;28;20434;-60
2022/10/31 11:52:14;;;;;;;13.20;5.17;;;16.50;99.90;;;;;;5073581;28;20976;-60
2022/10/31 11:55:10;;;;;;;11.43;4.50;;;16.50;99.90;;;;;;5076823;28;20459;-59
2022/10/31 11:57:51;;;;;;;9.00;5.80;;;16.50;99.90;;;;;;5071307;28;20534;-61
2022/10/31 12:00:30;;;;;;;9.90;4.70;;;16.50;99.90;;;;;;5078302;28;20452;-62
2022/10/31 12:03:21;;;;;;;15.20;4.70;;;16.50;99.90;;;;;;5075293;28;20456;-61
2022/10/31 12:05:52;;;;;;;11.73;5.33;;;16.50;99.90;;;;;;5077705;28;20481;-59
2022/10/31 12:08:18;;;;;;;17.93;6.80;;;16.50;99.90;;;;;;5078365;28;20966;-61
2022/10/31 12:10:49;;;;;;;14.83;5.17;;;16.50;99.90;;;;;;5081673;28;20404;-61
2022/10/31 12:13:32;;;;;;;13.53;4.80;;;16.50;99.90;;;;;;5077219;28;20174;-61
2022/10/31 12:16:26;;;;;;;18.40;5.50;;;16.50;99.90;;;;;;5081887;28;20435;-61
2022/10/31 12:19:05;;;;;;;13.23;4.90;;;16.60;98.40;;;;;;5074978;28;20469;-61
2022/10/31 12:21:49;;;;;;;10.80;5.20;;;16.70;95.40;;;;;;5073449;28;20443;-61
2022/10/31 12:24:37;;;;;;;20.33;5.40;;;16.80;91.60;;;;;;5078321;28;20428;-61
2022/10/31 12:27:21;;;;;;;7.80;4.33;;;17.00;82.50;;;;;;5081184;28;21038;-61
2022/10/31 12:30:08;;;;;;;9.20;4.33;;;17.30;81.20;;;;;;5081378;28;20428;-61
2022/10/31 12:32:34;;;;;;;9.77;4.20;;;17.50;80.10;;;;;;5078660;28;20428;-61
2022/10/31 12:35:19;;;;;;;10.33;5.47;;;17.70;81.20;;;;;;5081174;28;20427;-60
2022/10/31 12:37:57;;;;;;;12.80;4.87;;;17.90;82.40;;;;;;5078600;28;20213;-60
2022/10/31 12:40:32;;;;;;;10.40;5.10;;;18.00;81.50;;;;;;5081562;28;20423;-60
2022/10/31 12:43:35;;;;;;;13.87;5.07;;;18.10;80.00;;;;;;5082014;28;20438;-62
2022/10/31 12:46:04;;;;;;;20.07;4.70;;;18.10;81.80;;;;;;5078789;28;20460;-60
2022/10/31 12:48:49;;;;;;;10.60;4.40;;;18.20;82.60;;;;;;5074698;28;20961;-61
2022/10/31 12:51:34;;;;;;;9.97;4.00;;;18.40;83.80;;;;;;5080306;28;20799;-62
2022/10/31 12:54:18;;;;;;;21.97;5.50;;;18.70;86.00;;;;;;5082494;28;20991;-62
2022/10/31 12:56:57;;;;;;;14.57;4.70;;;19.00;79.70;;;;;;5062396;28;20431;-60
2022/10/31 12:59:53;;;;;;;9.87;4.73;;;19.40;75.60;;;;;;5077256;28;20443;-61
2022/10/31 13:02:20;;;;;;;11.23;5.80;;;19.80;73.20;;;;;;5077416;28;20432;-61
2022/10/31 13:05:13;;;;;;;13.17;5.43;;;20.20;72.60;;;;;;5078554;28;20428;-62
2022/10/31 13:07:48;;;;;;;13.03;5.30;;;20.50;68.70;;;;;;5064672;28;20444;-62
2022/10/31 13:10:25;;;;;;;9.90;5.00;;;20.80;65.80;;;;;;5075281;28;21399;-61
2022/10/31 13:12:56;;;;;;;12.30;5.50;;;21.50;64.30;;;;;;5076118;28;20518;-62
2022/10/31 13:15:28;;;;;;;11.73;4.90;;;22.70;61.90;;;;;;5075933;28;20514;-62